sensor_id;sensor_type;location;lat;lon;timestamp;pressure;altitude;pressure_sealevel;temperature;humidity
37648;BME280;23490;53.656;10.076;2023-10-09T00:00:10;99033.91;;;-145.95;100.00
37648;BME280;23490;53.656;10.076;2023-10-09T00:02:54;98996.72;;;-145.95;100.00
37648;BME280;23490;53.656;10.076;2023-10-09T00:05:19;99029.78;;;-145.95;100.00
37648;BME280;23490;53.656;10.076;2023-10-09T00:07:52;99054.56;;;-145.95;100.00
37648;BME280;23490;53.656;10.076;2023-10-09T00:10:21;99048.34;;;-145.95;100.00
37648;BME280;23490;53.656;10.076;2023-10-09T00:12:47;99073.13;;;-145.95;100.00
37648;BME280;23490;53.656;10.076;2023-10-09T00:15:14;99116.50;;;-145.95;100.00
37648;BME280;23490;53.656;10.076;2023-10-09T00:17:43;99079.34;;;-145.95;100.00
37648;BME280;23490;53.656;10.076;2023-10-09T00:20:12;99056.63;;;-145.95;100.00
37648;BME280;23490;53.656;10.076;2023-10-09T00:22:45;99095.84;;;-145.95;100.00
37648;BME280;23490;53.656;10.076;2023-10-09T00:25:12;99099.97;;;-145.95;100.00
37648;BME280;23490;53.656;10.076;2023-10-09T00:27:41;99091.72;;;-145.95;100.00
37648;BME280;23490;53.656;10.076;2023-10-09T00:30:17;99079.34;;;-145.95;100.00
37648;BME280;23490;53.656;10.076;2023-10-09T00:32:54;99079.34;;;-145.95;100.00
37648;BME280;23490;53.656;10.076;2023-10-09T00:35:30;99060.75;;;-145.95;100.00
37648;BME280;23490;53.656;10.076;2023-10-09T00:38:02;99064.88;;;-145.95;100.00
37648;BME280;23490;53.656;10.076;2023-10-09T00:40:38;99046.28;;;-145.95;100.00
37648;BME280;23490;53.656;10.076;2023-10-09T00:43:11;99062.81;;;-145.95;100.00
37648;BME280;23490;53.656;10.076;2023-10-09T00:45:38;99071.06;;;-145.95;100.00
37648;BME280;23490;53.656;10.076;2023-10-09T00:48:07;99060.75;;;-145.95;100.00
37648;BME280;23490;53.656;10.076;2023-10-09T00:50:34;99079.34;;;-145.95;100.00
37648;BME280;23490;53.656;10.076;2023-10-09T00:53:02;99095.84;;;-145.95;100.00
37648;BME280;23490;53.656;10.076;2023-10-09T00:55:35;99099.97;;;-145.95;100.00
37648;BME280;23490;53.656;10.076;2023-10-09T00:58:12;99062.81;;;-145.95;100.00
37648;BME280;23490;53.656;10.076;2023-10-09T01:00:39;99106.16;;;-145.95;100.00
37648;BME280;23490;53.656;10.076;2023-10-09T01:03:13;99083.47;;;-145.95;100.00
37648;BME280;23490;53.656;10.076;2023-10-09T01:05:41;99095.84;;;-145.95;100.00
37648;BME280;23490;53.656;10.076;2023-10-09T01:08:17;99075.19;;;-145.95;100.00
37648;BME280;23490;53.656;10.076;2023-10-09T01:10:50;99104.09;;;-145.95;100.00
37648;BME280;23490;53.656;10.076;2023-10-09T01:13:16;99133.03;;;-145.95;100.00
37648;BME280;23490;53.656;10.076;2023-10-09T01:15:43;99116.50;;;-145.95;100.00
37648;BME280;23490;53.656;10.076;2023-10-09T01:18:10;99120.63;;;-145.95;100.00
37648;BME280;23490;53.656;10.076;2023-10-09T01:20:35;99108.25;;;-145.95;100.00
37648;BME280;23490;53.656;10.076;2023-10-09T01:23:06;99079.34;;;-145.95;100.00
37648;BME280;23490;53.656;10.076;2023-10-09T01:25:33;99108.25;;;-145.95;100.00
37648;BME280;23490;53.656;10.076;2023-10-09T01:28:07;99069.00;;;-145.95;100.00
37648;BME280;23490;53.656;10.076;2023-10-09T01:30:33;99124.75;;;-145.95;100.00
37648;BME280;23490;53.656;10.076;2023-10-09T01:32:58;99120.63;;;-145.95;100.00
37648;BME280;23490;53.656;10.076;2023-10-09T01:35:37;99120.63;;;-145.95;100.00
37648;BME280;23490;53.656;10.076;2023-10-09T01:38:11;99133.03;;;-145.95;100.00
37648;BME280;23490;53.656;10.076;2023-10-09T01:40:39;99099.97;;;-145.95;100.00
37648;BME280;23490;53.656;10.076;2023-10-09T01:43:05;99110.31;;;-145.95;100.00
37648;BME280;23490;53.656;10.076;2023-10-09T01:45:30;99118.56;;;-145.95;100.00
37648;BME280;23490;53.656;10.076;2023-10-09T01:48:07;99120.63;;;-145.95;100.00
37648;BME280;23490;53.656;10.076;2023-10-09T01:50:33;99151.59;;;-145.95;100.00
37648;BME280;23490;53.656;10.076;2023-10-09T01:53:01;99093.78;;;-145.95;100.00
37648;BME280;23490;53.656;10.076;2023-10-09T01:55:31;99135.09;;;-145.95;100.00
37648;BME280;23490;53.656;10.076;2023-10-09T01:58:03;99116.50;;;-145.95;100.00
37648;BME280;23490;53.656;10.076;2023-10-09T02:00:47;99120.63;;;-145.95;100.00
37648;BME280;23490;53.656;10.076;2023-10-09T02:03:15;99099.97;;;-145.95;100.00
37648;BME280;23490;53.656;10.076;2023-10-09T02:05:43;99112.38;;;-145.95;100.00
37648;BME280;23490;53.656;10.076;2023-10-09T02:08:09;99112.38;;;-145.95;100.00
37648;BME280;23490;53.656;10.076;2023-10-09T02:10:36;99091.72;;;-145.95;100.00
37648;BME280;23490;53.656;10.076;2023-10-09T02:13:07;99102.03;;;-145.95;100.00
37648;BME280;23490;53.656;10.076;2023-10-09T02:15:39;99116.50;;;-145.95;100.00
37648;BME280;23490;53.656;10.076;2023-10-09T02:18:11;99126.81;;;-145.95;100.00
37648;BME280;23490;53.656;10.076;2023-10-09T02:23:24;99120.63;;;-145.95;100.00
37648;BME280;23490;53.656;10.076;2023-10-09T02:25:58;99104.09;;;-145.95;100.00
37648;BME280;23490;53.656;10.076;2023-10-09T02:28:31;99137.16;;;-145.95;100.00
37648;BME280;23490;53.656;10.076;2023-10-09T02:30:58;99112.38;;;-145.95;100.00
37648;BME280;23490;53.656;10.076;2023-10-09T02:33:26;99149.53;;;-145.95;100.00
37648;BME280;23490;53.656;10.076;2023-10-09T02:35:58;99124.75;;;-145.95;100.00
37648;BME280;23490;53.656;10.076;2023-10-09T02:38:30;99133.03;;;-145.95;100.00
37648;BME280;23490;53.656;10.076;2023-10-09T02:40:58;99116.50;;;-145.95;100.00
37648;BME280;23490;53.656;10.076;2023-10-09T02:43:31;99110.31;;;-145.95;100.00
37648;BME280;23490;53.656;10.076;2023-10-09T02:46:00;99141.28;;;-145.95;100.00
37648;BME280;23490;53.656;10.076;2023-10-09T02:48:38;99137.16;;;-145.95;100.00
37648;BME280;23490;53.656;10.076;2023-10-09T02:51:08;99153.66;;;-145.95;100.00
37648;BME280;23490;53.656;10.076;2023-10-09T02:53:39;99128.88;;;-145.95;100.00
37648;BME280;23490;53.656;10.076;2023-10-09T02:56:05;99145.41;;;-145.95;100.00
37648;BME280;23490;53.656;10.076;2023-10-09T02:58:42;99124.75;;;-145.95;100.00
37648;BME280;23490;53.656;10.076;2023-10-09T03:01:12;99145.41;;;-145.95;100.00
37648;BME280;23490;53.656;10.076;2023-10-09T03:03:42;99143.34;;;-145.95;100.00
37648;BME280;23490;53.656;10.076;2023-10-09T03:06:11;99128.88;;;-145.95;100.00
37648;BME280;23490;53.656;10.076;2023-10-09T03:08:38;99124.75;;;-145.95;100.00
37648;BME280;23490;53.656;10.076;2023-10-09T03:11:04;99153.66;;;-145.95;100.00
37648;BME280;23490;53.656;10.076;2023-10-09T03:13:31;99141.28;;;-145.95;100.00
37648;BME280;23490;53.656;10.076;2023-10-09T03:15:58;99120.63;;;-145.95;100.00
37648;BME280;23490;53.656;10.076;2023-10-09T03:18:24;99095.84;;;-145.95;100.00
37648;BME280;23490;53.656;10.076;2023-10-09T03:20:49;99155.72;;;-145.95;100.00
37648;BME280;23490;53.656;10.076;2023-10-09T03:23:15;99141.28;;;-145.95;100.00
37648;BME280;23490;53.656;10.076;2023-10-09T03:25:41;99157.81;;;-145.95;100.00
37648;BME280;23490;53.656;10.076;2023-10-09T03:28:11;99145.41;;;-145.95;100.00
37648;BME280;23490;53.656;10.076;2023-10-09T03:30:37;99180.50;;;-145.95;100.00
37648;BME280;23490;53.656;10.076;2023-10-09T03:33:05;99170.19;;;-145.95;100.00
37648;BME280;23490;53.656;10.076;2023-10-09T03:35:32;99170.19;;;-145.95;100.00
37648;BME280;23490;53.656;10.076;2023-10-09T03:38:00;99145.41;;;-145.95;100.00
37648;BME280;23490;53.656;10.076;2023-10-09T03:40:27;99190.84;;;-145.95;100.00
37648;BME280;23490;53.656;10.076;2023-10-09T03:42:53;99149.53;;;-145.95;100.00
37648;BME280;23490;53.656;10.076;2023-10-09T03:45:20;99186.72;;;-145.95;100.00
37648;BME280;23490;53.656;10.076;2023-10-09T03:47:52;99145.41;;;-145.95;100.00
37648;BME280;23490;53.656;10.076;2023-10-09T03:50:22;99176.38;;;-145.95;100.00
37648;BME280;23490;53.656;10.076;2023-10-09T03:53:04;99159.88;;;-145.95;100.00
37648;BME280;23490;53.656;10.076;2023-10-09T03:55:34;99207.38;;;-145.95;100.00
37648;BME280;23490;53.656;10.076;2023-10-09T03:57:59;99207.38;;;-145.95;100.00
37648;BME280;23490;53.656;10.076;2023-10-09T04:00:28;99153.66;;;-145.95;100.00
37648;BME280;23490;53.656;10.076;2023-10-09T04:02:57;99161.94;;;-145.95;100.00
37648;BME280;23490;53.656;10.076;2023-10-09T04:05:24;99178.44;;;-145.95;100.00
37648;BME280;23490;53.656;10.076;2023-10-09T04:07:49;99178.44;;;-145.95;100.00
37648;BME280;23490;53.656;10.076;2023-10-09T04:10:18;99194.97;;;-145.95;100.00
37648;BME280;23490;53.656;10.076;2023-10-09T04:13:10;99199.09;;;-145.95;100.00
37648;BME280;23490;53.656;10.076;2023-10-09T04:15:37;99151.59;;;-145.95;100.00
37648;BME280;23490;53.656;10.076;2023-10-09T04:18:03;99174.31;;;-145.95;100.00
37648;BME280;23490;53.656;10.076;2023-10-09T04:20:30;99170.19;;;-145.95;100.00
37648;BME280;23490;53.656;10.076;2023-10-09T04:23:19;99180.50;;;-145.95;100.00
37648;BME280;23490;53.656;10.076;2023-10-09T04:25:59;99203.22;;;-145.95;100.00
37648;BME280;23490;53.656;10.076;2023-10-09T04:28:25;99145.41;;;-145.95;100.00
37648;BME280;23490;53.656;10.076;2023-10-09T04:30:50;99153.66;;;-145.95;100.00
37648;BME280;23490;53.656;10.076;2023-10-09T04:33:20;99174.31;;;-145.95;100.00
37648;BME280;23490;53.656;10.076;2023-10-09T04:38:46;99221.81;;;-145.95;100.00
37648;BME280;23490;53.656;10.076;2023-10-09T04:41:24;99194.97;;;-145.95;100.00
37648;BME280;23490;53.656;10.076;2023-10-09T04:44:16;99161.94;;;-145.95;100.00
37648;BME280;23490;53.656;10.076;2023-10-09T04:46:41;99145.41;;;-145.95;100.00
37648;BME280;23490;53.656;10.076;2023-10-09T04:49:12;99203.22;;;-145.95;100.00
37648;BME280;23490;53.656;10.076;2023-10-09T04:51:52;99174.31;;;-145.95;100.00
37648;BME280;23490;53.656;10.076;2023-10-09T04:54:32;99166.06;;;-145.95;100.00
37648;BME280;23490;53.656;10.076;2023-10-09T04:57:05;99197.03;;;-145.95;100.00
37648;BME280;23490;53.656;10.076;2023-10-09T04:59:38;99161.94;;;-145.95;100.00
37648;BME280;23490;53.656;10.076;2023-10-09T05:02:11;99166.06;;;-145.95;100.00
37648;BME280;23490;53.656;10.076;2023-10-09T05:04:44;99228.00;;;-145.95;100.00
37648;BME280;23490;53.656;10.076;2023-10-09T05:07:12;99153.66;;;-145.95;100.00
37648;BME280;23490;53.656;10.076;2023-10-09T05:09:56;99184.66;;;-145.95;100.00
37648;BME280;23490;53.656;10.076;2023-10-09T05:12:31;99211.50;;;-145.95;100.00
37648;BME280;23490;53.656;10.076;2023-10-09T05:14:56;99149.53;;;-145.95;100.00
37648;BME280;23490;53.656;10.076;2023-10-09T05:17:37;99188.78;;;-145.95;100.00
37648;BME280;23490;53.656;10.076;2023-10-09T05:20:04;99199.09;;;-145.95;100.00
37648;BME280;23490;53.656;10.076;2023-10-09T05:22:48;99236.28;;;-145.95;100.00
37648;BME280;23490;53.656;10.076;2023-10-09T05:25:26;99161.94;;;-145.95;100.00
37648;BME280;23490;53.656;10.076;2023-10-09T05:28:11;99153.66;;;-145.95;100.00
37648;BME280;23490;53.656;10.076;2023-10-09T05:30:55;99236.28;;;-145.95;100.00
37648;BME280;23490;53.656;10.076;2023-10-09T05:33:36;99166.06;;;-145.95;100.00
37648;BME280;23490;53.656;10.076;2023-10-09T05:36:04;99151.59;;;-145.95;100.00
37648;BME280;23490;53.656;10.076;2023-10-09T05:38:48;99161.94;;;-145.95;100.00
37648;BME280;23490;53.656;10.076;2023-10-09T05:41:26;99174.31;;;-145.95;100.00
37648;BME280;23490;53.656;10.076;2023-10-09T05:44:10;99176.38;;;-145.95;100.00
37648;BME280;23490;53.656;10.076;2023-10-09T05:46:56;99153.66;;;-145.95;100.00
37648;BME280;23490;53.656;10.076;2023-10-09T05:49:40;99157.81;;;-145.95;100.00
37648;BME280;23490;53.656;10.076;2023-10-09T05:52:12;99207.38;;;-145.95;100.00
37648;BME280;23490;53.656;10.076;2023-10-09T05:55:07;99186.72;;;-145.95;100.00
37648;BME280;23490;53.656;10.076;2023-10-09T05:57:56;99176.38;;;-145.95;100.00
37648;BME280;23490;53.656;10.076;2023-10-09T06:00:22;99174.31;;;-145.95;100.00
37648;BME280;23490;53.656;10.076;2023-10-09T06:03:06;99166.06;;;-145.95;100.00
37648;BME280;23490;53.656;10.076;2023-10-09T06:05:48;99174.31;;;-145.95;100.00
37648;BME280;23490;53.656;10.076;2023-10-09T06:08:29;99153.66;;;-145.95;100.00
37648;BME280;23490;53.656;10.076;2023-10-09T06:11:13;99159.88;;;-145.95;100.00
37648;BME280;23490;53.656;10.076;2023-10-09T06:13:59;99192.91;;;-145.95;100.00
37648;BME280;23490;53.656;10.076;2023-10-09T06:16:38;99178.44;;;-145.95;100.00
37648;BME280;23490;53.656;10.076;2023-10-09T06:19:11;99205.28;;;-145.95;100.00
37648;BME280;23490;53.656;10.076;2023-10-09T06:21:43;99199.09;;;-145.95;100.00
37648;BME280;23490;53.656;10.076;2023-10-09T06:24:17;99215.63;;;-145.95;100.00
37648;BME280;23490;53.656;10.076;2023-10-09T06:26:44;99178.44;;;-145.95;100.00
37648;BME280;23490;53.656;10.076;2023-10-09T06:29:29;99221.81;;;-145.95;100.00
37648;BME280;23490;53.656;10.076;2023-10-09T06:32:08;99211.50;;;-145.95;100.00
37648;BME280;23490;53.656;10.076;2023-10-09T06:35:01;99215.63;;;-145.95;100.00
37648;BME280;23490;53.656;10.076;2023-10-09T06:37:48;99190.84;;;-145.95;100.00
37648;BME280;23490;53.656;10.076;2023-10-09T06:40:36;99161.94;;;-145.95;100.00
37648;BME280;23490;53.656;10.076;2023-10-09T06:43:02;99213.56;;;-145.95;100.00
37648;BME280;23490;53.656;10.076;2023-10-09T06:45:35;99178.44;;;-145.95;100.00
37648;BME280;23490;53.656;10.076;2023-10-09T06:48:12;99186.72;;;-145.95;100.00
37648;BME280;23490;53.656;10.076;2023-10-09T06:50:57;99186.72;;;-145.95;100.00
37648;BME280;23490;53.656;10.076;2023-10-09T06:53:48;99211.50;;;-145.95;100.00
37648;BME280;23490;53.656;10.076;2023-10-09T06:56:21;99194.97;;;-145.95;100.00
37648;BME280;23490;53.656;10.076;2023-10-09T07:01:26;99166.06;;;-145.95;100.00
37648;BME280;23490;53.656;10.076;2023-10-09T07:04:08;99166.06;;;-145.95;100.00
37648;BME280;23490;53.656;10.076;2023-10-09T07:06:52;99157.81;;;-145.95;100.00
37648;BME280;23490;53.656;10.076;2023-10-09T07:09:18;99190.84;;;-145.95;100.00
37648;BME280;23490;53.656;10.076;2023-10-09T07:11:50;99219.75;;;-145.95;100.00
37648;BME280;23490;53.656;10.076;2023-10-09T07:17:03;99248.66;;;-145.95;100.00
37648;BME280;23490;53.656;10.076;2023-10-09T07:19:48;99180.50;;;-145.95;100.00
37648;BME280;23490;53.656;10.076;2023-10-09T07:22:16;99170.19;;;-145.95;100.00
37648;BME280;23490;53.656;10.076;2023-10-09T07:24:45;99215.63;;;-145.95;100.00
37648;BME280;23490;53.656;10.076;2023-10-09T07:27:20;99184.66;;;-145.95;100.00
37648;BME280;23490;53.656;10.076;2023-10-09T07:30:07;99166.06;;;-145.95;100.00
37648;BME280;23490;53.656;10.076;2023-10-09T07:33:03;99188.78;;;-145.95;100.00
37648;BME280;23490;53.656;10.076;2023-10-09T07:35:41;99153.66;;;-145.95;100.00
37648;BME280;23490;53.656;10.076;2023-10-09T07:38:18;99166.06;;;-145.95;100.00
37648;BME280;23490;53.656;10.076;2023-10-09T07:40:54;99203.22;;;-145.95;100.00
37648;BME280;23490;53.656;10.076;2023-10-09T07:43:35;99211.50;;;-145.95;100.00
37648;BME280;23490;53.656;10.076;2023-10-09T07:46:05;99197.03;;;-145.95;100.00
37648;BME280;23490;53.656;10.076;2023-10-09T07:48:31;99159.88;;;-145.95;100.00
37648;BME280;23490;53.656;10.076;2023-10-09T07:51:24;99205.28;;;-145.95;100.00
37648;BME280;23490;53.656;10.076;2023-10-09T07:53:57;99128.88;;;-145.95;100.00
37648;BME280;23490;53.656;10.076;2023-10-09T07:56:25;99203.22;;;-145.95;100.00
37648;BME280;23490;53.656;10.076;2023-10-09T07:58:58;99145.41;;;-145.95;100.00
37648;BME280;23490;53.656;10.076;2023-10-09T08:01:47;99190.84;;;-145.95;100.00
37648;BME280;23490;53.656;10.076;2023-10-09T08:04:23;99178.44;;;-145.95;100.00
37648;BME280;23490;53.656;10.076;2023-10-09T08:07:08;99176.38;;;-145.95;100.00
37648;BME280;23490;53.656;10.076;2023-10-09T08:09:35;99186.72;;;-145.95;100.00
37648;BME280;23490;53.656;10.076;2023-10-09T08:12:14;99174.31;;;-145.95;100.00
37648;BME280;23490;53.656;10.076;2023-10-09T08:15:05;99149.53;;;-145.95;100.00
37648;BME280;23490;53.656;10.076;2023-10-09T08:17:51;99147.47;;;-145.95;100.00
37648;BME280;23490;53.656;10.076;2023-10-09T08:20:36;99201.16;;;-145.95;100.00
37648;BME280;23490;53.656;10.076;2023-10-09T08:23:20;99153.66;;;-145.95;100.00
37648;BME280;23490;53.656;10.076;2023-10-09T08:26:01;99164.00;;;-145.95;100.00
37648;BME280;23490;53.656;10.076;2023-10-09T08:28:44;99149.53;;;-145.95;100.00
37648;BME280;23490;53.656;10.076;2023-10-09T08:31:13;99170.19;;;-145.95;100.00
37648;BME280;23490;53.656;10.076;2023-10-09T08:34:00;99153.66;;;-145.95;100.00
37648;BME280;23490;53.656;10.076;2023-10-09T08:36:27;99133.03;;;-145.95;100.00
37648;BME280;23490;53.656;10.076;2023-10-09T08:39:02;99170.19;;;-145.95;100.00
37648;BME280;23490;53.656;10.076;2023-10-09T08:41:42;99135.09;;;-145.95;100.00
37648;BME280;23490;53.656;10.076;2023-10-09T08:44:11;99145.41;;;-145.95;100.00
37648;BME280;23490;53.656;10.076;2023-10-09T08:46:37;99141.28;;;-145.95;100.00
37648;BME280;23490;53.656;10.076;2023-10-09T08:49:03;99149.53;;;-145.95;100.00
37648;BME280;23490;53.656;10.076;2023-10-09T08:51:30;99161.94;;;-145.95;100.00
37648;BME280;23490;53.656;10.076;2023-10-09T08:53:56;99147.47;;;-145.95;100.00
37648;BME280;23490;53.656;10.076;2023-10-09T08:56:22;99157.81;;;-145.95;100.00
37648;BME280;23490;53.656;10.076;2023-10-09T08:58:52;99145.41;;;-145.95;100.00
37648;BME280;23490;53.656;10.076;2023-10-09T09:01:20;99124.75;;;-145.95;100.00
37648;BME280;23490;53.656;10.076;2023-10-09T09:03:51;99166.06;;;-145.95;100.00
37648;BME280;23490;53.656;10.076;2023-10-09T09:06:19;99157.81;;;-145.95;100.00
37648;BME280;23490;53.656;10.076;2023-10-09T09:08:45;99149.53;;;-145.95;100.00
37648;BME280;23490;53.656;10.076;2023-10-09T09:11:15;99112.38;;;-145.95;100.00
37648;BME280;23490;53.656;10.076;2023-10-09T09:16:22;99122.69;;;-145.95;100.00
37648;BME280;23490;53.656;10.076;2023-10-09T09:18:56;99149.53;;;-145.95;100.00
37648;BME280;23490;53.656;10.076;2023-10-09T09:21:26;99071.06;;;-145.95;100.00
37648;BME280;23490;53.656;10.076;2023-10-09T09:23:54;99128.88;;;-145.95;100.00
37648;BME280;23490;53.656;10.076;2023-10-09T09:26:36;99124.75;;;-145.95;100.00
37648;BME280;23490;53.656;10.076;2023-10-09T09:29:05;99108.25;;;-145.95;100.00
37648;BME280;23490;53.656;10.076;2023-10-09T09:31:32;99071.06;;;-145.95;100.00
37648;BME280;23490;53.656;10.076;2023-10-09T09:34:06;99120.63;;;-145.95;100.00
37648;BME280;23490;53.656;10.076;2023-10-09T09:36:58;99149.53;;;-145.95;100.00
37648;BME280;23490;53.656;10.076;2023-10-09T09:39:27;99091.72;;;-145.95;100.00
37648;BME280;23490;53.656;10.076;2023-10-09T09:42:00;99083.47;;;-145.95;100.00
37648;BME280;23490;53.656;10.076;2023-10-09T09:44:39;99108.25;;;-145.95;100.00
37648;BME280;23490;53.656;10.076;2023-10-09T09:47:14;99087.59;;;-145.95;100.00
37648;BME280;23490;53.656;10.076;2023-10-09T09:49:51;99060.75;;;-145.95;100.00
37648;BME280;23490;53.656;10.076;2023-10-09T09:52:18;99087.59;;;-145.95;100.00
37648;BME280;23490;53.656;10.076;2023-10-09T09:54:44;99091.72;;;-145.95;100.00
37648;BME280;23490;53.656;10.076;2023-10-09T09:57:12;99048.34;;;-145.95;100.00
37648;BME280;23490;53.656;10.076;2023-10-09T09:59:40;99058.69;;;-145.95;100.00
37648;BME280;23490;53.656;10.076;2023-10-09T10:02:07;99087.59;;;-145.95;100.00
37648;BME280;23490;53.656;10.076;2023-10-09T10:04:38;99029.78;;;-145.95;100.00
37648;BME280;23490;53.656;10.076;2023-10-09T10:07:06;99054.56;;;-145.95;100.00
37648;BME280;23490;53.656;10.076;2023-10-09T10:09:41;99031.84;;;-145.95;100.00
37648;BME280;23490;53.656;10.076;2023-10-09T10:12:11;99002.94;;;-145.95;100.00
37648;BME280;23490;53.656;10.076;2023-10-09T10:14:54;99087.59;;;-145.95;100.00
37648;BME280;23490;53.656;10.076;2023-10-09T10:20:26;99050.41;;;-145.95;100.00
37648;BME280;23490;53.656;10.076;2023-10-09T10:23:14;99099.97;;;-145.95;100.00
37648;BME280;23490;53.656;10.076;2023-10-09T10:25:43;99081.41;;;-145.95;100.00
37648;BME280;23490;53.656;10.076;2023-10-09T10:30:55;98980.22;;;-145.95;100.00
37648;BME280;23490;53.656;10.076;2023-10-09T10:33:21;99087.59;;;-145.95;100.00
37648;BME280;23490;53.656;10.076;2023-10-09T10:35:48;99050.41;;;-145.95;100.00
37648;BME280;23490;53.656;10.076;2023-10-09T10:38:32;99025.63;;;-145.95;100.00
37648;BME280;23490;53.656;10.076;2023-10-09T10:41:15;99000.84;;;-145.95;100.00
37648;BME280;23490;53.656;10.076;2023-10-09T10:43:48;99017.38;;;-145.95;100.00
37648;BME280;23490;53.656;10.076;2023-10-09T10:46:21;99033.91;;;-145.95;100.00
37648;BME280;23490;53.656;10.076;2023-10-09T10:48:58;99050.41;;;-145.95;100.00
37648;BME280;23490;53.656;10.076;2023-10-09T10:51:34;99005.00;;;-145.95;100.00
37648;BME280;23490;53.656;10.076;2023-10-09T10:54:09;99071.06;;;-145.95;100.00
37648;BME280;23490;53.656;10.076;2023-10-09T10:56:53;98951.31;;;-145.95;100.00
37648;BME280;23490;53.656;10.076;2023-10-09T10:59:22;99011.19;;;-145.95;100.00
37648;BME280;23490;53.656;10.076;2023-10-09T11:01:49;99011.19;;;-145.95;100.00
37648;BME280;23490;53.656;10.076;2023-10-09T11:04:27;99025.63;;;-145.95;100.00
37648;BME280;23490;53.656;10.076;2023-10-09T11:07:13;99054.56;;;-145.95;100.00
37648;BME280;23490;53.656;10.076;2023-10-09T11:09:52;99005.00;;;-145.95;100.00
37648;BME280;23490;53.656;10.076;2023-10-09T11:18:01;99029.78;;;-145.95;100.00
37648;BME280;23490;53.656;10.076;2023-10-09T11:20:34;98992.59;;;-145.95;100.00
37648;BME280;23490;53.656;10.076;2023-10-09T11:23:01;98984.34;;;-145.95;100.00
37648;BME280;23490;53.656;10.076;2023-10-09T11:25:37;98955.44;;;-145.95;100.00
37648;BME280;23490;53.656;10.076;2023-10-09T11:28:17;98988.47;;;-145.95;100.00
37648;BME280;23490;53.656;10.076;2023-10-09T11:30:58;98988.47;;;-145.95;100.00
37648;BME280;23490;53.656;10.076;2023-10-09T11:33:48;98959.56;;;-145.95;100.00
37648;BME280;23490;53.656;10.076;2023-10-09T11:36:22;98992.59;;;-145.95;100.00
37648;BME280;23490;53.656;10.076;2023-10-09T11:39:03;99013.25;;;-145.95;100.00
37648;BME280;23490;53.656;10.076;2023-10-09T11:41:47;98980.22;;;-145.95;100.00
37648;BME280;23490;53.656;10.076;2023-10-09T11:44:15;98992.59;;;-145.95;100.00
37648;BME280;23490;53.656;10.076;2023-10-09T11:47:00;98971.94;;;-145.95;100.00
37648;BME280;23490;53.656;10.076;2023-10-09T11:49:57;98959.56;;;-145.95;100.00
37648;BME280;23490;53.656;10.076;2023-10-09T11:52:26;98912.06;;;-145.95;100.00
37648;BME280;23490;53.656;10.076;2023-10-09T11:55:04;98967.81;;;-145.95;100.00
37648;BME280;23490;53.656;10.076;2023-10-09T11:57:40;98945.09;;;-145.95;100.00
37648;BME280;23490;53.656;10.076;2023-10-09T12:00:05;98976.09;;;-145.95;100.00
37648;BME280;23490;53.656;10.076;2023-10-09T12:03:10;98914.13;;;-145.95;100.00
37648;BME280;23490;53.656;10.076;2023-10-09T12:05:35;98943.03;;;-145.95;100.00
37648;BME280;23490;53.656;10.076;2023-10-09T12:08:02;98918.25;;;-145.95;100.00
37648;BME280;23490;53.656;10.076;2023-10-09T12:10:28;98961.63;;;-145.95;100.00
37648;BME280;23490;53.656;10.076;2023-10-09T12:12:59;98938.91;;;-145.95;100.00
37648;BME280;23490;53.656;10.076;2023-10-09T12:15:30;98922.41;;;-145.95;100.00
37648;BME280;23490;53.656;10.076;2023-10-09T12:18:09;98959.56;;;-145.95;100.00
37648;BME280;23490;53.656;10.076;2023-10-09T12:20:40;98930.66;;;-145.95;100.00
37648;BME280;23490;53.656;10.076;2023-10-09T12:23:05;98918.25;;;-145.95;100.00
37648;BME280;23490;53.656;10.076;2023-10-09T12:25:33;98971.94;;;-145.95;100.00
37648;BME280;23490;53.656;10.076;2023-10-09T12:28:02;98953.38;;;-145.95;100.00
37648;BME280;23490;53.656;10.076;2023-10-09T12:30:37;98938.91;;;-145.95;100.00
37648;BME280;23490;53.656;10.076;2023-10-09T12:33:05;98930.66;;;-145.95;100.00
37648;BME280;23490;53.656;10.076;2023-10-09T12:35:39;98924.47;;;-145.95;100.00
37648;BME280;23490;53.656;10.076;2023-10-09T12:38:06;98945.09;;;-145.95;100.00
37648;BME280;23490;53.656;10.076;2023-10-09T12:40:35;98947.16;;;-145.95;100.00
37648;BME280;23490;53.656;10.076;2023-10-09T12:43:01;98926.53;;;-145.95;100.00
37648;BME280;23490;53.656;10.076;2023-10-09T12:45:27;98959.56;;;-145.95;100.00
37648;BME280;23490;53.656;10.076;2023-10-09T12:47:53;98930.66;;;-145.95;100.00
37648;BME280;23490;53.656;10.076;2023-10-09T12:50:24;98953.38;;;-145.95;100.00
37648;BME280;23490;53.656;10.076;2023-10-09T12:52:55;98930.66;;;-145.95;100.00
37648;BME280;23490;53.656;10.076;2023-10-09T12:55:21;98934.78;;;-145.95;100.00
37648;BME280;23490;53.656;10.076;2023-10-09T12:57:47;98893.47;;;-145.95;100.00
37648;BME280;23490;53.656;10.076;2023-10-09T13:00:13;98926.53;;;-145.95;100.00
37648;BME280;23490;53.656;10.076;2023-10-09T13:02:51;98922.41;;;-145.95;100.00
37648;BME280;23490;53.656;10.076;2023-10-09T13:05:19;98916.19;;;-145.95;100.00
37648;BME280;23490;53.656;10.076;2023-10-09T13:07:54;98870.78;;;-145.95;100.00
37648;BME280;23490;53.656;10.076;2023-10-09T13:10:23;98854.25;;;-145.95;100.00
37648;BME280;23490;53.656;10.076;2023-10-09T13:12:49;98901.75;;;-145.95;100.00
37648;BME280;23490;53.656;10.076;2023-10-09T13:15:20;98885.22;;;-145.95;100.00